Tiempo atmosférico en la estación meteorológica de Llerena, Badajoz (655 m.)



Fecha
DESCASC
Temp. máxima en grados centígrados (hora)
DESCASC
Temp. mínima en grados centígrados (hora)
DESCASC
Temp. media en grados centígrados
DESCASC
Racha de viento máxima en m/sg (hora)
DESCASC
Velocidad máxima media en intervalos de 10 minutos(hora)
DESCASC
Precipitaciones diarias en mm
DESCASC
Precipitaciones de 00:00 a 06:00 en mm
DESCASC
Precipitaciones de 06:00 a 12:00 en mm
DESCASC
Precipitaciones de 12:00 a 18:00 en mm
DESCASC
Precipitaciones de 18:00 a 24:00 en mm
DESCASC
16-06-2019 29.8 (17:30) 12.7 (07:10) 21.2 10.28 (22:50) 8.06 (22:50) 0 0 0 0 0
15-06-2019 26 (18:10) 9.4 (06:40) 17.7 6.39 (15:30) 3.89 (00:20) 0 0 0 0 0
14-06-2019 21.5 (16:00) 8.9 (07:10) 15.2 12.78 (14:20) 7.5 (14:20) 0 0 0 0 0
13-06-2019 28.4 (18:10) 10.3 (00:00) 19.3 11.39 (17:10) 7.22 (19:50) 0 0 0 0 0
12-06-2019 29.3 (18:30) 11.5 (00:00) 20.4 9.17 (19:30) 5.56 (19:20) 0 0 0 0 0
11-06-2019 25 (16:30) 9.4 (00:00) 17.2 12.5 (15:10) 6.94 (15:30) 0 0 0 0 0
10-06-2019 26 (16:30) 9.9 (00:00) 17.9 9.72 (16:40) 5.83 (19:00) 0 0 0 0 0
09-06-2019 27.3 (17:30) 11.6 (00:00) 19.4 10.83 (19:40) 7.22 (19:40) 0 0 0 0 0
08-06-2019 30.5 (17:40) 9.8 (00:00) 20.2 9.72 (16:40) 6.11 (21:00) 0 0 0 0 0
07-06-2019 22.4 (18:30) 8.4 (00:00) 15.4 11.39 (03:50) 7.5 (02:30) 0.2 0.2 0 0 0
06-06-2019 25.5 (18:00) 7.5 (00:00) 16.5 11.39 (19:00) 7.78 (19:10) 0 0 0 0 0
05-06-2019 21.3 (15:20) 8.6 (00:00) 14.9 12.5 (11:00) 8.61 (04:40) 0 0 0 0 0
04-06-2019 28.5 (15:50) 14.5 (00:00) 21.5 12.22 (20:30) 8.61 (19:20) 0 0 0 0 0
03-06-2019 35.2 (16:40) 18.5 (00:00) 26.9 12.5 (16:30) 6.11 (18:50) 0 0 0 0 0
02-06-2019 34.8 (16:40) 18.7 (00:00) 26.8 9.17 (02:50) 6.94 (02:50) 0 0 0 0 0
01-06-2019 33.5 (17:00) 17.3 (00:00) 25.4 11.39 (03:20) 8.89 (03:20) 0 0 0 0 0
31-05-2019 32.7 (17:20) 18.5 (00:00) 25.6 13.89 (03:40) 9.72 (03:40) 0 0 0 0 0
30-05-2019 32 (15:50) 15.4 (00:00) 23.7 11.39 (16:40) 6.11 (23:30) 0 0 0 0 0
29-05-2019 29 (16:50) 15.9 (00:00) 22.4 11.94 (10:40) 8.33 (10:30) 0 0 0 0 0
28-05-2019 31.8 (16:30) 15.5 (00:00) 23.6 10 (18:10) 5.56 (21:00) 0 0 0 0 0
27-05-2019 32.6 (15:10) 16.9 (00:00) 24.7 11.11 (15:30) 6.67 (20:30) 0 0 0 0 0
26-05-2019 29.3 (17:20) 14.3 (00:00) 21.8 9.72 (18:40) 4.72 (16:40) 0 0 0 0 0
25-05-2019 26.3 (18:40) 13.5 (00:00) 19.9 9.17 (20:00) 6.67 (09:40) 0 0 0 0 0
24-05-2019 27.2 (17:50) 10.6 (00:00) 18.9 9.44 (14:00) 6.11 (01:30) 0 0 0 0 0
23-05-2019 30.4 (16:20) 14.6 (00:00) 22.5 10.28 (19:10) 6.94 (18:40) 0 0 0 0 0
22-05-2019 29.6 (15:50) 12.8 (00:00) 21.2 8.33 (13:20) 5 (22:50) 0 0 0 0 0
21-05-2019 26.5 (16:50) 10 (06:30) 18.3 7.22 (18:30) 5 (18:50) 0 0 0 0 0

Gráficas

Temp. máximas Temp. mínimas Temp. medias Precipitaciones Rachas de viento máximas Velocidades máximas media en intervalos de 10 minutos

Datos horarios

Fecha y hora oficial Temperatura (ºC) Velocidad del viento (km/h) Dirección del viento Racha (km/h) Dirección de racha Precipitación (mm) Presión (hPa) Tendencia (hPa) Humedad (%)
2019-06-19 23:00:00 20.2 9 Noroeste 19 Noroeste 0 941.1 0.9 54
2019-06-19 22:00:00 21.9 13 Noroeste 24 Noroeste 0 940.5 0.4 47
2019-06-19 21:00:00 24.2 16 Noroeste 28 Noroeste 0 940.3 -0.2 38
2019-06-19 20:00:00 25.9 14 Noroeste 27 Oeste 0 940.2 -0.7 33
2019-06-19 19:00:00 27.3 12 Oeste 28 Noroeste 0 940.1 -1.3 30
2019-06-19 18:00:00 27.9 12 Oeste 33 Noroeste 0 940.5 -1.3 29
2019-06-19 17:00:00 27.6 14 Sudoeste 34 Norte 0 940.9 -1.5 29
2019-06-19 16:00:00 27.4 13 Oeste 26 Oeste 0 941.4 -1.3 31
2019-06-19 15:00:00 24.2 14 Noroeste 24 Oeste 0 941.8 -0.8 38
2019-06-19 14:00:00 24.6 12 Oeste 22 Sudoeste 0 942.4 -0.2 38
2019-06-19 13:00:00 24.6 8 Sudoeste 20 Oeste 0 942.7 0.2 39
2019-06-19 12:00:00 21.4 10 Oeste 19 Sudoeste 0 942.6 0.4 49
2019-06-19 11:00:00 20.7 10 Oeste 24 Oeste 0 942.6 0.6 52
2019-06-19 10:00:00 18.4 9 Oeste 15 Oeste 0 942.5 0.7 67
2019-06-19 09:00:00 15.6 6 Sudoeste 14 Noroeste 0 942.2 0.6 80
2019-06-19 08:00:00 14.7 6 Oeste 14 Oeste 0 942 0.7 84
2019-06-19 07:00:00 13.4 12 Oeste 16 Oeste 0 941.8 0.6 87
2019-06-19 06:00:00 13.8 9 Sudoeste 19 Sudoeste 0 941.6 0.1 86
2019-06-19 05:00:00 14.3 13 Sudoeste 18 Sudoeste 0 941.3 -0.2 85
2019-06-19 04:00:00 15.1 17 Sudoeste 24 Sudoeste 0 941.2 -0.5 85
2019-06-19 03:00:00 15.7 10 Oeste 20 Sudoeste 0 941.5 -0.4 80
2019-06-19 02:00:00 16.5 10 Sudoeste 21 Sudoeste 0 941.5 -0.1 77
2019-06-19 01:00:00 17.2 16 Sudoeste 20 Sudoeste 0 941.7 0.6 74
2019-06-19 00:00:00 17.9 14 Sudoeste 22 Sudoeste 0 941.9 1 69
2019-06-18 23:00:00 18.9 13 Sur 19 Sur 0 941.6 0.8 64
2019-06-18 22:00:00 20.2 10 Sudoeste 22 Oeste 0 941.1 0.7 55
2019-06-18 21:00:00 22.3 17 Oeste 33 Oeste 0 940.9 0.5 48
2019-06-18 20:00:00 24 21 Oeste 39 Oeste 0 940.8 0.6 42
2019-06-18 19:00:00 26.4 17 Sudoeste 33 Sudoeste 0 940.4 -0.1 36
2019-06-18 18:00:00 26.4 22 Sudoeste 37 Sudoeste 0 940.4 -0.3 33
2019-06-18 17:00:00 27.3 19 Sudoeste 39 Sudoeste 0 940.2 -1.1 32
2019-06-18 16:00:00 27.1 22 Sudoeste 39 Sudoeste 0 940.5 -0.8 31
2019-06-18 15:00:00 27.5 20 Sudoeste 36 Sudoeste 0 940.7 -0.6 30
2019-06-18 14:00:00 26.1 17 Sudoeste 33 Sudoeste 0 941.3 0.4 28
2019-06-18 13:00:00 24.9 21 Sudoeste 37 Sudoeste 0 941.3 0.5 28
2019-06-18 12:00:00 22.9 21 Sudoeste 32 Sudoeste 0 941.3 0.5 26
2019-06-18 11:00:00 21.3 18 Sur 32 Sur 0 940.9 0.9 24
2019-06-18 10:00:00 19.6 22 Sur 31 Sudoeste 0 940.8 1.1 22
2019-06-18 09:00:00 17.4 21 Sudoeste 31 Sur 0 940.8 1.4 23
2019-06-18 08:00:00 17.2 23 Sur 37 Sur 0 940 0.7 16
2019-06-18 07:00:00 16.7 26 Sur 34 Sur 0 939.7 -0.1 14
2019-06-18 06:00:00 17.5 26 Sur 39 Sur 0 939.4 -0.9 12
2019-06-18 05:00:00 18.3 27 Sur 36 Sur 0 939.3 -1.2 11
2019-06-18 04:00:00 18.5 23 Sur 33 Sudoeste 0 939.8 -0.8 12
2019-06-18 03:00:00 18.9 24 Sur 32 Sur 0 940.3 -0.5 12
2019-06-18 02:00:00 19.7 18 Sur 27 Sur 0 940.5 0 18
2019-06-18 01:00:00 20.4 19 Sur 26 Sur 0 940.6 0.5 20
2019-06-18 00:00:00 21.1 12 Sudoeste 21 Sudoeste 0 940.8 0.7 28
2019-06-17 23:00:00 22.1 8 Sudoeste 18 Sudoeste 0 940.5 0.5 28
2019-06-17 22:00:00 22.8 13 Sudoeste 28 Sudoeste 0 940.1 0.2 25
2019-06-17 21:00:00 25.5 19 Sudoeste 35 Sudoeste 0 940.1 -0.1 18
2019-06-17 20:00:00 27.3 21 Sur 36 Sur 0 940 -0.5 22
2019-06-17 19:00:00 28.1 20 Sudoeste 35 Sur 0 939.9 -1.1 15
2019-06-17 18:00:00 29 23 Sur 36 Sudoeste 0 940.2 -1.3 12
2019-06-17 17:00:00 29.2 22 Sur 35 Sudoeste 0 940.5 -1.4 14
2019-06-17 16:00:00 29.1 26 Sudoeste 39 Sur 0 941 -1.4 11
2019-06-17 15:00:00 28.7 20 Sudoeste 37 Sur 0 941.5 -1.1 17
2019-06-17 14:00:00 27.6 20 Sur 39 Sur 0 941.9 -1.2 17
2019-06-17 13:00:00 26.8 17 Sur 31 Sudoeste 0 942.4 -0.5 15
2019-06-17 12:00:00 24.3 18 Sur 28 Sur 0 942.6 -0.2 21
2019-06-17 11:00:00 22.6 19 Sur 35 Sur 0 943.1 0.4 28
2019-06-17 10:00:00 20.6 20 Sur 30 Sudoeste 0 942.9 0.2 32
2019-06-17 09:00:00 19.8 12 Sur 19 Sudoeste 0 942.8 0.2 31
2019-06-17 08:00:00 17.5 3 Este 6 Sur 0 942.7 0.1 38
2019-06-17 07:00:00 15.2 3 Sudeste 14 Sudoeste 0 942.7 0.2 43
2019-06-17 06:00:00 16.1 9 Sudoeste 18 Sudoeste 0 942.6 -0.2 42
2019-06-17 05:00:00 16.5 3 Sur 32 Sudoeste 0 942.6 -0.5 39
2019-06-17 04:00:00 17.7 25 Sudoeste 35 Sur 0 942.5 -0.9 36
2019-06-17 03:00:00 18.1 28 Sudoeste 37 Sur 0 942.8 -0.7 33
2019-06-17 02:00:00 18.7 29 Sudoeste 37 Sudoeste 0 943.1 -0.1 32
2019-06-17 01:00:00 19.4 27 Sudoeste 36 Sudoeste 0 943.4 1 30
2019-06-17 00:00:00 19.8 20 Sudoeste 31 Sudoeste 0 943.5 1.5 31
2019-06-16 23:00:00 20.9 21 Sudoeste 37 Sur 0 943.2 1.2 29
2019-06-16 22:00:00 22.7 24 Sudoeste 35 Sudoeste 0 942.4 0.5 26
2019-06-16 21:00:00 25.4 22 Sur 31 Sudoeste 0 942 0.1 22
2019-06-16 20:00:00 27.1 20 Sudoeste 32 Sur 0 942 0 19
2019-06-16 19:00:00 28.5 17 Sudoeste 35 Sur 0 941.9 -0.5 14
2019-06-16 18:00:00 28.9 15 Sur 33 Sudoeste 0 941.9 -0.8 15
2019-06-16 17:00:00 28.4 17 Sur 33 Sur 0 942 -1 19
2019-06-16 16:00:00 27.8 16 Sur 32 Sudoeste 0 942.4 -0.5 13
2019-06-16 15:00:00 27.9 17 Sur 30 Sudoeste 0 942.7 -0.3 16
2019-06-16 14:00:00 27.2 15 Sur 33 Sudoeste 0 943 -0.3 21
2019-06-16 13:00:00 27.5 13 Sur 28 Sudoeste 0 942.9 -0.1 20
2019-06-16 12:00:00 25 7 Sudeste 21 Sudeste 0 943 0.3 24
2019-06-16 11:00:00 21.6 10 Este 15 Este 0 943.3 0.8 28
2019-06-16 10:00:00 19 8 Este 10 Nordeste 0 943 0.7 40
2019-06-16 09:00:00 16.5 4 Nordeste 8 Norte 0 942.7 0.6 56
2019-06-16 08:00:00 14.3 2 Nordeste 6 Norte 0 942.5 0.3 62
2019-06-16 07:00:00 12.8 2 Este 5 Nordeste 0 942.3 -0.1 62
2019-06-16 06:00:00 13.5 2 Nordeste 7 Noroeste 0 942.1 -0.6 59
2019-06-16 05:00:00 14.4 3 Norte 12 Noroeste 0 942.2 -0.8 45
2019-06-16 04:00:00 15 5 Este 10 Este 0 942.4 -1.3 33
2019-06-16 03:00:00 16 6 Este 8 Este 0 942.7 -1 31
2019-06-16 02:00:00 15.9 4 Este 6 Sudeste 0 943 -0.6 30
2019-06-16 01:00:00 16.8 2 Este 5 Nordeste 0 943.7 0.5 30
2019-06-16 00:00:00 17.9 3 Este 13 Norte 0 943.7 0.7 29
2019-06-15 23:00:00 19.5 8 Norte 17 Norte 0 943.6 0.6 28
2019-06-15 22:00:00 21.4 7 Norte 17 Norte 0 943.2 0.3 25
2019-06-15 21:00:00 23.6 7 Norte 19 Norte 0 943 -0.3 22
2019-06-15 20:00:00 24.6 7 Nordeste 20 Noroeste 0 943 -0.6 21
2019-06-15 19:00:00 25.1 9 Norte 23 Noroeste 0 942.9 -1.2 20
2019-06-15 18:00:00 25.2 10 Oeste 19 Noroeste 0 943.3 -1.2 21
2019-06-15 17:00:00 24.3 8 Este 23 Noroeste 0 943.6 -1.2 23
2019-06-15 16:00:00 24 12 Noroeste 23 Noroeste 0 944.1 -1 25
2019-06-15 15:00:00 23.3 5 Este 17 Norte 0 944.5 -0.7 27
2019-06-15 14:00:00 21.3 8 Este 22 Noroeste 0 944.8 -0.4 29
2019-06-15 13:00:00 20.1 6 Nordeste 15 Norte 0 945.1 0 32
2019-06-15 12:00:00 19.4 9 Norte 19 Norte 0 945.2 0.5 35
2019-06-15 11:00:00 18.6 6 Noroeste 14 Norte 0 945.2 0.7 42
2019-06-15 10:00:00 15.9 6 Norte 17 Norte 0 945.1 0.8 53
2019-06-15 09:00:00 14.9 3 Norte 9 Norte 0 944.7 0.7 60
2019-06-15 08:00:00 11.5 4 Noroeste 10 Noroeste 0 944.5 0.5 74
2019-06-15 07:00:00 9.6 8 Noroeste 13 Noroeste 0 944.3 0.3 80
2019-06-15 06:00:00 10 3 Oeste 12 Noroeste 0 944 -0.1 77
2019-06-15 05:00:00 10.6 9 Noroeste 16 Noroeste 0 944 -0.1 72
2019-06-15 04:00:00 10.5 11 Oeste 14 Oeste 0 944 -0.2 69
2019-06-15 03:00:00 11.4 9 Oeste 18 Noroeste 0 944.1 0.3 66
2019-06-15 02:00:00 11.7 9 Oeste 13 Oeste 0 944.1 0.8 63
2019-06-15 01:00:00 13.3 12 Noroeste 22 Noroeste 0 944.2 1.5 58
2019-06-15 00:00:00 14.2 14 Noroeste 21 Noroeste 0 943.8 1.7 52
2019-06-14 23:00:00 14.7 11 Oeste 26 Noroeste 0 943.3 1.6 48
2019-06-14 22:00:00 16.2 13 Noroeste 27 Oeste 0 942.7 1.3 42
2019-06-14 21:00:00 18.3 20 Noroeste 29 Oeste 0 942.1 0.8 35
2019-06-14 20:00:00 19.8 11 Noroeste 36 Oeste 0 941.7 0.6 31
2019-06-14 19:00:00 20.5 17 Oeste 39 Oeste 0 941.4 0.1 29
2019-06-14 18:00:00 21 18 Noroeste 36 Oeste 0 941.3 0.1 29
2019-06-14 17:00:00 20.6 21 Oeste 41 Oeste 0 941.1 0 29
2019-06-14 16:00:00 21 21 Oeste 40 Oeste 0 941.3 0.3 28
2019-06-14 15:00:00 20.6 21 Oeste 46 Oeste 0 941.2 0.5 30
2019-06-14 14:00:00 19.8 26 Oeste 40 Oeste 0 941.1 0.8 32
2019-06-14 13:00:00 19.4 16 Oeste 34 Oeste 0 941 1.2 35
2019-06-14 12:00:00 18.2 14 Oeste 27 Oeste 0 940.7 1.3 39
2019-06-14 11:00:00 16.4 12 Oeste 24 Oeste 0 940.3 1.6 44
2019-06-14 10:00:00 14.3 16 Oeste 23 Oeste 0 939.8 1.6 50
2019-06-14 09:00:00 12.4 17 Oeste 22 Oeste 0 939.4 1.7 57
2019-06-14 08:00:00 10.4 8 Oeste 13 Oeste 0 938.7 0.9 67
2019-06-14 07:00:00 9 9 Oeste 14 Oeste 0 938.2 0.2 72
2019-06-14 06:00:00 9.5 9 Oeste 15 Oeste 0 937.7 0 69
2019-06-14 05:00:00 9.9 8 Oeste 10 Noroeste 0 937.8 -0.2 65
2019-06-14 04:00:00 10.9 7 Oeste 17 Noroeste 0 938 0.2 63
2019-06-14 03:00:00 12 10 Noroeste 16 Noroeste 0 937.7 0.6 59
2019-06-14 02:00:00 12.9 10 Noroeste 18 Noroeste 0 938 1.1 53
2019-06-14 01:00:00 15.1 12 Noroeste 18 Noroeste 0 937.8 1.5 41
2019-06-14 00:00:00 16.5 12 Oeste 17 Oeste 0 937.1 1.8 31
2019-06-13 23:00:00 17.3 11 Oeste 18 Oeste 0 936.9 2.1 29
2019-06-13 22:00:00 19.2 14 Oeste 35 Oeste 0 936.3 2 27
2019-06-13 21:00:00 21.9 23 Oeste 36 Oeste 0 935.3 1 22
2019-06-13 20:00:00 22.6 24 Oeste 37 Noroeste 0 934.8 0.3 22
2019-06-13 19:00:00 26.1 25 Noroeste 39 Noroeste 0 934.3 -0.5 20
2019-06-13 18:00:00 28.3 11 Oeste 41 Sudoeste 0 934.3 -0.7 21
2019-06-13 17:00:00 27.4 12 Sur 28 Oeste 0 934.5 -1 25
2019-06-13 16:00:00 27 14 Sur 36 Sur 0 934.8 -1 28
2019-06-13 15:00:00 27.2 11 Sur 33 Sur 0 935 -1.2 24
2019-06-13 14:00:00 26.2 15 Sudeste 35 Sudoeste 0 935.5 -0.7 22
2019-06-13 13:00:00 25.1 10 Sudoeste 27 Sudoeste 0 935.8 -0.5 23
2019-06-13 12:00:00 23.9 13 Sur 26 Sur 0 936.2 0.1 19
2019-06-13 11:00:00 22.2 14 Sur 26 Sur 0 936.2 0.3 22
2019-06-13 10:00:00 18.7 4 Este 8 Oeste 0 936.3 0.5 32
2019-06-13 09:00:00 15 6 Oeste 12 Oeste 0 936.1 0.6 42
2019-06-13 08:00:00 12 8 Sudoeste 12 Sudoeste 0 935.9 0.5 49
2019-06-13 07:00:00 10.4 7 Sudoeste 13 Sudoeste 0 935.8 0.1 51
2019-06-13 06:00:00 11.1 10 Sudoeste 17 Sudoeste 0 935.5 -0.6 55
2019-06-13 05:00:00 11.8 12 Sudoeste 15 Sudoeste 0 935.4 -1.1 54
2019-06-13 04:00:00 11.9 8 Oeste 12 Oeste 0 935.7 -0.8 52
2019-06-13 03:00:00 12.7 8 Oeste 14 Oeste 0 936.1 -0.2 51
2019-06-13 02:00:00 13.9 8 Noroeste 16 Noroeste 0 936.5 0.8 45
2019-06-13 01:00:00 16 9 Noroeste 19 Noroeste 0 936.5 1.4 34
2019-06-13 00:00:00 17.7 10 Noroeste 17 Noroeste 0 936.3 1.4 21
2019-06-12 23:00:00 19.5 9 Oeste 15 Oeste 0 935.7 1.1 19
2019-06-12 22:00:00 21.7 9 Oeste 24 Oeste 0 935.1 0.5 15
2019-06-12 21:00:00 24.9 16 Oeste 28 Oeste 0 934.9 -0.1 13
2019-06-12 20:00:00 26.7 18 Noroeste 33 Oeste 0 934.6 -0.8 13
2019-06-12 19:00:00 29 12 Oeste 29 Sudoeste 0 934.6 -1.4 13
2019-06-12 18:00:00 28.9 10 Oeste 25 Sudoeste 0 935 -1.6 13
2019-06-12 17:00:00 28.5 10 Sudeste 28 Sudoeste 0 935.4 -1.8 15
2019-06-12 16:00:00 27.5 5 Norte 22 Sudoeste 0 936 -1.8 13
2019-06-12 15:00:00 26.6 9 Sudoeste 27 Noroeste 0 936.6 -1.4 13
2019-06-12 14:00:00 26.9 9 Sudoeste 23 Oeste 0 937.2 -1.1 15
2019-06-12 13:00:00 25.1 5 Noroeste 21 Noroeste 0 937.8 -0.3 18
2019-06-12 12:00:00 23.6 6 Nordeste 15 Sudoeste 0 938 0 20
2019-06-12 11:00:00 23.7 4 Sur 14 Sudoeste 0 938.3 0.6 21
2019-06-12 10:00:00 20 7 Este 13 Este 0 938.1 0.6 21
2019-06-12 09:00:00 17.8 9 Este 14 Este 0 938 0.8 22
2019-06-12 08:00:00 14.6 6 Este 10 Este 0 937.7 0.5 26
2019-06-12 07:00:00 11.6 4 Este 11 Nordeste 0 937.5 0 30
2019-06-12 06:00:00 12.6 6 Este 9 Nordeste 0 937.2 -0.4 30
2019-06-12 05:00:00 12.4 6 Este 10 Este 0 937.2 -0.8 30
2019-06-12 04:00:00 13.4 5 Nordeste 9 Este 0 937.5 -0.5 28
2019-06-12 03:00:00 14 6 Este 15 Nordeste 0 937.6 -0.5 27
2019-06-12 02:00:00 15.2 7 Norte 18 Norte 0 938 0.1 25
2019-06-12 01:00:00 15.7 8 Norte 21 Noroeste 0 938 0.7 24
2019-06-12 00:00:00 16.8 9 Norte 20 Noroeste 0 938.1 0.9 24
2019-06-11 23:00:00 18 13 Norte 23 Norte 0 937.9 1 23
2019-06-11 22:00:00 19.7 13 Noroeste 29 Norte 0 937.3 0.5 21
2019-06-11 21:00:00 22.1 16 Noroeste 34 Noroeste 0 937.2 0.2 20
2019-06-11 20:00:00 23.3 18 Noroeste 35 Noroeste 0 936.9 -0.2 17
2019-06-11 19:00:00 23.7 13 Norte 44 Norte 0 936.8 -0.5 19
2019-06-11 18:00:00 24.5 19 Noroeste 44 Noroeste 0 937 -0.5 19
2019-06-11 17:00:00 24.5 22 Noroeste 44 Noroeste 0 937.1 -0.7 21
2019-06-11 16:00:00 24.1 22 Norte 45 Noroeste 0 937.3 -0.6 22
2019-06-11 15:00:00 23.9 19 Noroeste 42 Noroeste 0 937.5 -0.6 27
2019-06-11 14:00:00 22.4 15 Noroeste 40 Norte 0 937.8 -0.4 33
2019-06-11 13:00:00 21.7 19 Noroeste 33 Noroeste 0 937.9 -0.1 34
2019-06-11 12:00:00 19.9 15 Noroeste 28 Noroeste 0 938.1 0.1 39
2019-06-11 11:00:00 17.7 12 Norte 27 Norte 0 938.2 0.4 45
2019-06-11 10:00:00 16.4 14 Noroeste 24 Noroeste 0 938 0.1 48
2019-06-11 09:00:00 14.2 12 Noroeste 22 Noroeste 0 938 0.1 54
2019-06-11 08:00:00 11.6 12 Noroeste 19 Noroeste 0 937.8 -0.6 62
2019-06-11 07:00:00 9.5 8 Sudoeste 20 Oeste 0 937.9 -0.9 68
2019-06-11 06:00:00 10.3 13 Oeste 21 Oeste 0 937.9 -1.4 63
2019-06-11 05:00:00 10.8 14 Oeste 23 Oeste 0 938.4 -1.7 60
2019-06-11 04:00:00 11.7 13 Oeste 23 Oeste 0 938.8 -1.7 52
2019-06-11 03:00:00 12.4 15 Oeste 24 Oeste 0 939.3 -1.3 48
2019-06-11 02:00:00 13.6 13 Oeste 19 Oeste 0 940.1 -0.2 43
2019-06-11 01:00:00 15.3 14 Noroeste 33 Noroeste 0 940.5 0.7 38
2019-06-11 00:00:00 17.6 20 Noroeste 30 Noroeste 0 940.6 0.9 32
2019-06-10 23:00:00 19.6 19 Noroeste 29 Noroeste 0 940.3 0.6 30
2019-06-10 22:00:00 21.2 15 Noroeste 31 Noroeste 0 939.8 -0.3 27
2019-06-10 21:00:00 23.3 17 Noroeste 31 Noroeste 0 939.7 -0.8 23
2019-06-10 20:00:00 25 18 Noroeste 33 Noroeste 0 939.7 -1.1 20
2019-06-10 19:00:00 25.7 21 Noroeste 33 Noroeste 0 940.1 -1.3 18
2019-06-10 18:00:00 25.7 17 Noroeste 31 Noroeste 0 940.5 -1.3 19
2019-06-10 17:00:00 25.7 14 Noroeste 35 Noroeste 0 940.8 -1.7 20
2019-06-10 16:00:00 25.2 12 Noroeste 30 Noroeste 0 941.4 -1.4 23
2019-06-10 15:00:00 24.3 17 Oeste 34 Noroeste 0 941.8 -1.2 26
2019-06-10 14:00:00 23.6 14 Norte 27 Norte 0 942.5 -0.5 27
2019-06-10 13:00:00 22.4 13 Noroeste 30 Norte 0 942.8 -0.5 29
2019-06-10 12:00:00 20.8 14 Norte 29 Noroeste 0 943 0.1 35
2019-06-10 11:00:00 19.5 10 Norte 19 Oeste 0 943 0.2 43
2019-06-10 10:00:00 17.4 10 Noroeste 18 Norte 0 943.3 0.7 52
2019-06-10 09:00:00 14.6 11 Noroeste 15 Noroeste 0 942.9 0.5 63
2019-06-10 08:00:00 12 8 Oeste 12 Oeste 0 942.8 -0.2 73
2019-06-10 07:00:00 10.1 9 Oeste 13 Sudoeste 0 942.6 -0.8 80
2019-06-10 06:00:00 10.5 9 Sudoeste 14 Oeste 0 942.4 -1.4 79
2019-06-10 05:00:00 11.2 12 Noroeste 22 Oeste 0 943 -0.9 77
2019-06-10 04:00:00 12 17 Oeste 25 Oeste 0 943.4 -0.5 72
2019-06-10 03:00:00 13.2 13 Noroeste 25 Noroeste 0 943.8 -0.1 65
2019-06-10 02:00:00 14.2 16 Noroeste 27 Noroeste 0 943.9 0.4 57
2019-06-10 01:00:00 15.6 18 Noroeste 29 Noroeste 0 943.9 1.1 51
2019-06-10 00:00:00 16.9 17 Noroeste 26 Noroeste 0 943.9 1.7 46
2019-06-09 23:00:00 18 16 Noroeste 27 Noroeste 0 943.5 1.5 41
2019-06-09 22:00:00 19.6 18 Noroeste 35 Noroeste 0 942.8 0.9 36
2019-06-09 21:00:00 22.1 22 Oeste 37 Noroeste 0 942.2 0.3 28
2019-06-09 20:00:00 24 20 Noroeste 39 Noroeste 0 942 -0.2 23
2019-06-09 19:00:00 25.4 17 Oeste 36 Oeste 0 941.9 -0.6 21
2019-06-09 18:00:00 25.5 15 Noroeste 32 Noroeste 0 941.9 -1 20
2019-06-09 17:00:00 26.1 18 Noroeste 30 Oeste 0 942.2 -0.9 17
2019-06-09 16:00:00 26.2 12 Noroeste 33 Noroeste 0 942.5 -1 18
2019-06-09 15:00:00 25.3 15 Oeste 32 Noroeste 0 942.9 -0.8 18
2019-06-09 14:00:00 24.3 17 Oeste 36 Oeste 0 943.1 -0.6 18
2019-06-09 13:00:00 23.3 20 Oeste 38 Sudoeste 0 943.5 -0.4 14
2019-06-09 12:00:00 22 10 Oeste 23 Sudoeste 0 943.7 0.2 25
2019-06-09 11:00:00 19.4 11 Oeste 19 Oeste 0 943.7 0.6 29
2019-06-09 10:00:00 17.3 11 Oeste 24 Oeste 0 943.9 1.2 29
2019-06-09 09:00:00 16.1 15 Oeste 22 Oeste 0 943.5 0.7 45
2019-06-09 08:00:00 14.6 9 Oeste 12 Oeste 0 943.1 0 51
2019-06-09 07:00:00 13 10 Sudoeste 12 Sudoeste 0 942.7 -0.8 53
2019-06-09 06:00:00 11.8 7 Sudoeste 11 Sudoeste 0 942.8 -0.9 60
2019-06-09 05:00:00 11.8 7 Oeste 10 Oeste 0 943.1 -0.8 57
2019-06-09 04:00:00 12.6 7 Oeste 13 Noroeste 0 943.5 -0.3 57
2019-06-09 03:00:00 13.7 5 Noroeste 12 Oeste 0 943.7 0.2 55
2019-06-09 02:00:00 14.8 8 Oeste 14 Noroeste 0 943.9 0.7 47
2019-06-09 01:00:00 16.3 6 Sudoeste 21 Noroeste 0 943.8 1.4 33
2019-06-09 00:00:00 18.7 12 Sudoeste 18 Sudoeste 0 943.5 2 27
2019-06-08 23:00:00 19.8 4 Oeste 16 Sudoeste 0 943.2 2.2 22
2019-06-08 22:00:00 21.9 11 Oeste 32 Sudoeste 0 942.4 1.6 20
2019-06-08 21:00:00 25.7 22 Sudoeste 35 Sudoeste 0 941.5 0.4 17
2019-06-08 20:00:00 28.4 14 Sudoeste 34 Sur 0 941 -0.4 11
2019-06-08 19:00:00 29.4 18 Sudoeste 31 Sur 0 940.8 -1.1 11
2019-06-08 18:00:00 29.2 15 Sudoeste 28 Sudoeste 0 941.1 -1.3 9
2019-06-08 17:00:00 29.6 8 Sudoeste 35 Sudoeste 0 941.4 -1.7 10
2019-06-08 16:00:00 28.6 9 Noroeste 26 Oeste 0 941.9 -1.3 12
2019-06-08 15:00:00 27.5 9 Sur 22 Sur 0 942.4 -0.9 13
2019-06-08 14:00:00 26.1 8 Sudoeste 21 Sudoeste 0 943.1 -0.4 13
2019-06-08 13:00:00 25.7 8 Oeste 17 Oeste 0 943.2 -0.3 15
2019-06-08 12:00:00 23.1 6 Norte 16 Nordeste 0 943.3 -0.3 21
2019-06-08 11:00:00 20.9 5 Este 14 Nordeste 0 943.5 0 24
2019-06-08 10:00:00 18.3 6 Nordeste 11 Este 0 943.5 0.1 33
2019-06-08 09:00:00 15.6 5 Nordeste 7 Nordeste 0 943.6 0.1 42
2019-06-08 08:00:00 12.9 0 Calma 9 Norte 0 943.5 -0.1 55
2019-06-08 07:00:00 9.8 2 Noroeste 8 Nordeste 0 943.4 -0.3 63
2019-06-08 06:00:00 10 2 Este 10 Norte 0 943.5 -0.4 61
2019-06-08 05:00:00 10.9 4 Norte 11 Norte 0 943.6 -0.7 58
2019-06-08 04:00:00 11.5 3 Nordeste 14 Norte 0 943.7 -0.7 55
2019-06-08 03:00:00 12.3 7 Norte 15 Norte 0 943.9 -0.5 51
2019-06-08 02:00:00 13.1 6 Norte 14 Noroeste 0 944.3 0.2 43
2019-06-08 01:00:00 14 4 Norte 9 Norte 0 944.4 0.8 38
2019-06-08 00:00:00 14.6 6 Norte 12 Noroeste 0 944.4 1.1 36
2019-06-07 23:00:00 15.7 6 Noroeste 14 Norte 0 944.1 1 31
2019-06-07 22:00:00 17.6 9 Norte 20 Norte 0 943.6 0.7 28
2019-06-07 21:00:00 20 10 Norte 22 Norte 0 943.3 0.5 23
2019-06-07 20:00:00 21 15 Norte 25 Norte 0 943.1 0 22
2019-06-07 19:00:00 21.5 10 Norte 30 Norte 0 942.9 -0.2 21
2019-06-07 18:00:00 21.8 9 Norte 24 Noroeste 0 942.8 -0.3 21
2019-06-07 17:00:00 21.6 17 Norte 32 Norte 0 943.1 -0.1 20
2019-06-07 16:00:00 20.7 9 Norte 24 Norte 0 943.1 0.1 25
2019-06-07 15:00:00 20.1 12 Noroeste 26 Norte 0 943.1 0.4 27
2019-06-07 14:00:00 19.3 13 Noroeste 28 Norte 0 943.2 0.8 26
2019-06-07 13:00:00 18.2 13 Noroeste 30 Norte 0 943 0.8 31
2019-06-07 12:00:00 16.7 14 Norte 32 Noroeste 0 942.7 1.1 34
2019-06-07 11:00:00 14.9 15 Norte 32 Norte 0 942.4 1.5 52
2019-06-07 10:00:00 12.6 17 Noroeste 32 Norte 0 942.2 2 67
2019-06-07 09:00:00 10.8 15 Noroeste 25 Norte 0 941.6 1.8 83
2019-06-07 08:00:00 9.4 10 Noroeste 20 Noroeste 0 940.9 1.3 88
2019-06-07 07:00:00 8.7 13 Noroeste 20 Noroeste 0 940.2 0.9 89
2019-06-07 06:00:00 9.8 12 Noroeste 20 Noroeste 0 939.8 1.1 90
2019-06-07 05:00:00 10.4 8 Noroeste 24 Noroeste 0 939.6 1.3 91
2019-06-07 04:00:00 10.4 21 Noroeste 41 Noroeste 0.2 939.3 1.1 93
2019-06-07 03:00:00 13.7 22 Oeste 40 Oeste 0 938.7 0.6 85
2019-06-07 02:00:00 15.1 23 Oeste 35 Sudoeste 0 938.3 0.9 71
2019-06-07 01:00:00 15.2 15 Sudoeste 31 Oeste 0 938.2 1.5 65
2019-06-07 00:00:00 15.3 17 Sudoeste 36 Oeste 0 938.1 1.7 63
2019-06-06 23:00:00 16.2 25 Oeste 40 Oeste 0 937.4 1.5 57
2019-06-06 22:00:00 17.7 24 Oeste 37 Oeste 0 936.7 0.8 47
2019-06-06 21:00:00 20.5 23 Oeste 36 Oeste 0 936.4 0.3 34
2019-06-06 20:00:00 22.3 26 Oeste 40 Oeste 0 935.9 -0.8 28
2019-06-06 19:00:00 23.4 26 Oeste 41 Oeste 0 935.9 -1.1 24
2019-06-06 18:00:00 25.5 14 Sudoeste 35 Oeste 0 936.1 -1.6 18
2019-06-06 17:00:00 25.2 21 Oeste 39 Sudoeste 0 936.7 -1.4 15
2019-06-06 16:00:00 24.8 21 Sudoeste 38 Sudoeste 0 937 -1.6 16
2019-06-06 15:00:00 23.9 17 Sudoeste 36 Sudoeste 0 937.7 -1.1 16
2019-06-06 14:00:00 23 13 Sudoeste 30 Sudoeste 0 938.1 -1 18
2019-06-06 13:00:00 21.1 10 Sudoeste 27 Sudoeste 0 938.6 -0.9 22
2019-06-06 12:00:00 19.5 17 Sudoeste 30 Oeste 0 938.8 -0.8 23
2019-06-06 11:00:00 17.1 4 Nordeste 11 Noroeste 0 939.1 -0.8 31
2019-06-06 10:00:00 14.8 3 Norte 9 Este 0 939.5 -0.5 38
2019-06-06 09:00:00 12.8 4 Este 8 Noroeste 0 939.6 -0.3 54
2019-06-06 08:00:00 9.4 4 Oeste 8 Oeste 0 939.9 -0.1 66
2019-06-06 07:00:00 7.6 6 Oeste 14 Noroeste 0 940 -0.3 72
2019-06-06 06:00:00 8.3 9 Oeste 16 Noroeste 0 939.9 -0.8 69
2019-06-06 05:00:00 9.1 13 Noroeste 21 Noroeste 0 940 -0.9 65
2019-06-06 04:00:00 9.2 6 Oeste 16 Noroeste 0 940.3 -0.6 61
2019-06-06 03:00:00 10.6 10 Noroeste 23 Noroeste 0 940.7 0 58
2019-06-06 02:00:00 11.7 13 Noroeste 22 Noroeste 0 940.9 0.4 52
2019-06-06 01:00:00 13.2 15 Noroeste 24 Noroeste 0 940.9 0.8 45
2019-06-06 00:00:00 14 11 Noroeste 19 Noroeste 0 940.7 0.8 41
2019-06-05 23:00:00 14.6 8 Oeste 16 Noroeste 0 940.5 0.8 39
2019-06-05 22:00:00 16.5 12 Noroeste 25 Noroeste 0 940.1 0.5 36
2019-06-05 21:00:00 18.4 18 Noroeste 28 Noroeste 0 939.9 -0.2 32
2019-06-05 20:00:00 19.8 18 Noroeste 34 Noroeste 0 939.7 -0.6 28
2019-06-05 19:00:00 20.8 17 Oeste 39 Noroeste 0 939.6 -1.2 25
2019-06-05 18:00:00 20.8 19 Noroeste 37 Noroeste 0 940.1 -0.7 26
2019-06-05 17:00:00 20 18 Noroeste 42 Norte 0 940.3 -0.9 29
2019-06-05 16:00:00 20.1 21 Noroeste 41 Noroeste 0 940.8 -0.6 31
2019-06-05 15:00:00 19.6 22 Noroeste 40 Noroeste 0 940.8 -0.3 30
2019-06-05 14:00:00 19.6 22 Noroeste 39 Norte 0 941.2 0.2 32
2019-06-05 13:00:00 17.9 25 Noroeste 42 Noroeste 0 941.4 0.5 34
2019-06-05 12:00:00 17.1 28 Noroeste 45 Noroeste 0 941.1 1 39
2019-06-05 11:00:00 15.3 26 Noroeste 45 Noroeste 0 941 1.4 48
2019-06-05 10:00:00 13.5 27 Noroeste 44 Noroeste 0 940.9 1.8 56
2019-06-05 09:00:00 11.9 26 Noroeste 41 Noroeste 0 940.1 1.4 69
2019-06-05 08:00:00 9.9 25 Noroeste 39 Noroeste 0 939.6 1 81
2019-06-05 07:00:00 8.6 21 Noroeste 34 Noroeste 0 939.1 0.5 84
2019-06-05 06:00:00 8.9 22 Noroeste 32 Noroeste 0 938.7 -0.1 80
2019-06-05 05:00:00 9.5 19 Oeste 45 Noroeste 0 938.6 -0.3 79
2019-06-05 04:00:00 10 22 Oeste 32 Oeste 0 938.6 0.1 73
2019-06-05 03:00:00 10.9 19 Noroeste 39 Noroeste 0 938.8 0.8 64
2019-06-05 02:00:00 12.1 22 Noroeste 41 Noroeste 0 938.9 1.3 61
2019-06-05 01:00:00 13.6 24 Noroeste 39 Noroeste 0 938.5 1.2 62
2019-06-05 00:00:00 15.1 23 Oeste 39 Oeste 0 938 1.1 70
2019-06-04 23:00:00 15.9 27 Oeste 40 Oeste 0 937.6 1.2 65
2019-06-04 22:00:00 16.8 24 Noroeste 39 Noroeste 0 937.3 0.8 67
2019-06-04 21:00:00 19.2 24 Noroeste 44 Noroeste 0 936.9 0.3 63
2019-06-04 20:00:00 22.5 27 Oeste 43 Oeste 0 936.4 -0.5 40
2019-06-04 19:00:00 25 28 Oeste 42 Oeste 0 936.5 -1 37
2019-06-04 18:00:00 26.5 24 Oeste 43 Oeste 0 936.6 -1.5 34
2019-06-04 17:00:00 27.7 23 Oeste 40 Oeste 0 936.9 -1.9 30
2019-06-04 16:00:00 27.4 15 Oeste 37 Oeste 0 937.5 -1.9 29
2019-06-04 15:00:00 27.9 13 Oeste 27 Noroeste 0 938.1 -1.4 30
2019-06-04 14:00:00 26.5 11 Oeste 26 Oeste 0 938.8 -1 33
2019-06-04 13:00:00 25.2 12 Oeste 22 Oeste 0 939.4 -0.6 29
2019-06-04 12:00:00 24 9 Noroeste 17 Sudoeste 0 939.5 -0.2 39
2019-06-04 11:00:00 20.6 13 Noroeste 23 Noroeste 0 939.8 0.5 53
2019-06-04 10:00:00 18.2 15 Noroeste 25 Noroeste 0 940 1.1 67
2019-06-04 09:00:00 16.9 15 Noroeste 23 Oeste 0 939.7 0.8 74
2019-06-04 08:00:00 15.6 9 Oeste 14 Oeste 0 939.3 0.2 75
2019-06-04 07:00:00 14.5 8 Sudoeste 11 Sudoeste 0 938.9 -0.7 74
2019-06-04 06:00:00 14.9 7 Sudoeste 15 Oeste 0 938.9 -1.2 66
2019-06-04 05:00:00 15.7 9 Sudoeste 16 Oeste 0 939.1 -1.4 55
2019-06-04 04:00:00 16.8 12 Sudoeste 17 Sudoeste 0 939.6 -1.3 45
2019-06-04 03:00:00 17.6 9 Sudoeste 13 Oeste 0 940.1 -0.9 45
2019-06-04 02:00:00 18.9 5 Oeste 17 Oeste 0 940.5 -0.3 43
2019-06-04 01:00:00 20.4 11 Oeste 20 Oeste 0 940.9 0.7 35
2019-06-04 00:00:00 22.1 10 Oeste 23 Oeste 0 941 1.1 27
2019-06-03 23:00:00 23.7 12 Oeste 18 Oeste 0 940.8 1.1 24
2019-06-03 22:00:00 25.9 10 Oeste 26 Oeste 0 940.2 0.3 20
2019-06-03 21:00:00 29.3 18 Oeste 30 Noroeste 0 939.9 -0.2 14
2019-06-03 20:00:00 31.4 20 Oeste 32 Noroeste 0 939.7 -0.8 13
2019-06-03 19:00:00 32.7 19 Oeste 32 Oeste 0 939.9 -1.1 12
2019-06-03 18:00:00 34 14 Sur 31 Sudoeste 0 940.1 -1.8 11
2019-06-03 17:00:00 34.8 14 Oeste 45 Sur 0 940.5 -1.9 10
2019-06-03 16:00:00 34.6 16 Sudoeste 35 Sudoeste 0 941 -1.9 11
2019-06-03 15:00:00 34.1 18 Sudoeste 35 Sudoeste 0 941.9 -1.2 11
2019-06-03 14:00:00 33.4 8 Sudoeste 30 Oeste 0 942.4 -0.7 12
2019-06-03 13:00:00 32.8 6 Oeste 15 Oeste 0 942.9 -0.2 12
2019-06-03 12:00:00 30.2 4 Norte 10 Noroeste 0 943.1 0 13
2019-06-03 11:00:00 28.2 3 Nordeste 9 Nordeste 0 943.1 0.2 16
2019-06-03 10:00:00 25.9 5 Norte 10 Noroeste 0 943.1 0.4 21
2019-06-03 09:00:00 23.6 5 Oeste 8 Sudoeste 0 943.1 0.6 24
2019-06-03 08:00:00 20.2 8 Sudoeste 11 Sudoeste 0 942.9 0.3 30
2019-06-03 07:00:00 18.6 7 Sudoeste 10 Oeste 0 942.7 0.2 31
2019-06-03 06:00:00 18.8 7 Oeste 14 Oeste 0 942.5 -0.3 29
2019-06-03 05:00:00 19.4 7 Oeste 13 Oeste 0 942.6 -0.6 28
2019-06-03 04:00:00 20.3 9 Oeste 17 Oeste 0 942.5 -1 25
2019-06-03 03:00:00 21.5 11 Oeste 18 Oeste 0 942.8 -0.6 28
2019-06-03 02:00:00 22 9 Oeste 16 Oeste 0 943.2 0.2 28
2019-06-03 01:00:00 23.6 8 Oeste 23 Noroeste 0 943.5 1.4 24
2019-06-03 00:00:00 25.1 12 Noroeste 24 Noroeste 0 943.4 2 23
2019-06-02 23:00:00 26.3 12 Oeste 22 Sur 0 943 1.8 19
2019-06-02 22:00:00 27.7 17 Sur 30 Sur 0 942.1 0.9 16
2019-06-02 21:00:00 29.6 19 Sur 29 Sur 0 941.4 -0.1 15
2019-06-02 20:00:00 32.3 17 Sur 30 Sudoeste 0 941.2 -0.4 14
2019-06-02 19:00:00 34.5 11 Sudoeste 23 Sur 0 941.2 -0.9 12
2019-06-02 18:00:00 34.1 13 Sudeste 28 Sudoeste 0 941.5 -1.2 12
2019-06-02 17:00:00 33.8 9 Este 21 Sur 0 941.6 -1.8 12
2019-06-02 16:00:00 34 6 Nordeste 19 Nordeste 0 942.1 -1.7 13
2019-06-02 15:00:00 33 12 Este 27 Este 0 942.7 -1.2 13
2019-06-02 14:00:00 34 8 Sudoeste 23 Sur 0 943.4 -0.7 13
2019-06-02 13:00:00 32.2 9 Sudoeste 22 Sudoeste 0 943.8 0 15
2019-06-02 12:00:00 29.5 13 Sudoeste 21 Sudoeste 0 943.9 0.5 17
2019-06-02 11:00:00 27.3 13 Sudoeste 22 Sudoeste 0 944.1 1 21
2019-06-02 10:00:00 25.9 5 Sudeste 16 Oeste 0 943.8 1 26
2019-06-02 09:00:00 24 2 Oeste 18 Norte 0 943.4 0.7 29
2019-06-02 08:00:00 24.4 12 Sur 22 Sur 0 943.1 0.2 24
2019-06-02 07:00:00 21.6 15 Sur 19 Sur 0 942.8 -0.2 28
2019-06-02 06:00:00 19.5 8 Sur 20 Sur 0 942.7 -0.2 32
2019-06-02 05:00:00 19.5 3 Sudoeste 16 Sur 0 942.9 0 36
2019-06-02 04:00:00 20.1 4 Este 30 Sur 0 943 -0.1 34
2019-06-02 03:00:00 21.9 25 Sur 33 Sur 0 942.9 -0.4 31
2019-06-02 02:00:00 24.1 22 Sur 29 Sur 0 942.9 0 25
2019-06-02 01:00:00 24.7 23 Sudoeste 31 Sudoeste 0 943.1 0.7 23
2019-06-02 00:00:00 25.5 22 Sur 28 Sur 0 943.3 1.2 21
2019-06-01 23:00:00 26 21 Sudoeste 30 Sudoeste 0 942.9 1 21
2019-06-01 22:00:00 26.9 22 Sudoeste 30 Sudoeste 0 942.4 0.4 21
2019-06-01 21:00:00 29.4 18 Sur 28 Sur 0 942.1 -0.2 19
2019-06-01 20:00:00 32.2 12 Sudoeste 32 Sudoeste 0 941.9 -0.8 16
2019-06-01 19:00:00 32.6 13 Este 26 Este 0 942 -1.4 13
2019-06-01 18:00:00 32.7 13 Nordeste 28 Nordeste 0 942.3 -1.6 13
2019-06-01 17:00:00 33.5 10 Sudeste 27 Este 0 942.7 -1.9 13
2019-06-01 16:00:00 32.8 17 Este 37 Sudeste 0 943.4 -1.6 13
2019-06-01 15:00:00 31.5 15 Este 31 Este 0 943.9 -1.1 14
2019-06-01 14:00:00 30.6 16 Este 28 Este 0 944.6 -0.5 16
2019-06-01 13:00:00 30.2 17 Sudeste 31 Este 0 945 -0.1 17
2019-06-01 12:00:00 28.7 15 Este 26 Este 0 945 0.2 20
2019-06-01 11:00:00 27.3 14 Este 25 Este 0 945.1 0.5 22
2019-06-01 10:00:00 26.6 9 Sudeste 16 Sudeste 0 945.1 0.6 24
2019-06-01 09:00:00 23.9 5 Sudoeste 17 Sudeste 0 944.8 0.7 29
2019-06-01 08:00:00 20.9 5 Norte 16 Noroeste 0 944.6 0.6 35
2019-06-01 07:00:00 17.4 12 Noroeste 25 Sur 0 944.5 0.4 44
2019-06-01 06:00:00 19.9 21 Sur 37 Sur 0 944.1 0 36
2019-06-01 05:00:00 20.9 30 Sur 41 Sur 0 944 -0.5 30
2019-06-01 04:00:00 21.7 29 Sur 41 Sur 0 944.1 -0.2 27
2019-06-01 03:00:00 21.2 31 Sur 40 Sur 0 944.1 -0.5 29
2019-06-01 02:00:00 21.7 28 Sur 39 Sur 0 944.5 0.3 27
2019-06-01 01:00:00 22.3 28 Sur 37 Sur 0 944.3 0.7 26
2019-06-01 00:00:00 23.3 25 Sur 35 Sur 0 944.6 1.4 25
2019-05-31 23:00:00 24.7 26 Sur 35 Sur 0 944.2 1.1 25
2019-05-31 22:00:00 26.1 27 Sur 33 Sur 0 943.6 0.3 23
2019-05-31 21:00:00 28.7 19 Sudoeste 30 Sudoeste 0 943.2 -0.5 20
2019-05-31 20:00:00 31.3 15 Sudoeste 38 Noroeste 0 943.1 -0.9 16
2019-05-31 19:00:00 31.9 18 Este 30 Nordeste 0 943.3 -1.2 13
2019-05-31 18:00:00 32 10 Este 35 Este 0 943.7 -1.2 13
2019-05-31 17:00:00 32 12 Este 35 Este 0 944 -1.4 13
2019-05-31 16:00:00 31.9 13 Este 32 Este 0 944.5 -1.4 14
2019-05-31 15:00:00 31.1 15 Este 32 Este 0 944.9 -1.2 14
2019-05-31 14:00:00 30.5 17 Este 30 Este 0 945.4 -0.9 17
2019-05-31 13:00:00 29.1 19 Este 32 Este 0 945.9 -0.4 19
2019-05-31 12:00:00 27.1 17 Este 31 Este 0 946.1 -0.1 23
2019-05-31 11:00:00 25.1 14 Este 26 Este 0 946.3 0.4 27
2019-05-31 10:00:00 22 15 Este 21 Este 0 946.3 0.9 33
2019-05-31 09:00:00 19.4 13 Este 20 Este 0 946.2 1.1 37
2019-05-31 08:00:00 19.7 9 Este 29 Sudeste 0 945.9 0.6 35
2019-05-31 07:00:00 19.3 19 Sudeste 35 Sur 0 945.4 0.2 35
2019-05-31 06:00:00 19.1 20 Sur 31 Sur 0 945.1 -0.5 34
2019-05-31 05:00:00 18.6 22 Sur 42 Sur 0 945.3 -0.8 34
2019-05-31 04:00:00 18.7 32 Sur 50 Sur 0 945.2 -0.9 33
2019-05-31 03:00:00 19.4 34 Sur 44 Sur 0 945.6 -0.6 36
2019-05-31 02:00:00 19.6 23 Sur 37 Sur 0 946.1 0.2 39
2019-05-31 01:00:00 21.3 22 Sur 30 Sur 0 946.1 0.9 40
2019-05-31 00:00:00 23 21 Sur 29 Sur 0 946.2 1.6 35
2019-05-30 23:00:00 24.1 21 Sur 27 Sur 0 945.9 1.6 32
2019-05-30 22:00:00 25.2 18 Sur 27 Sur 0 945.2 0.7 30
2019-05-30 21:00:00 28.9 14 Nordeste 26 Nordeste 0 944.6 -0.3 13
2019-05-30 20:00:00 30 16 Nordeste 28 Este 0 944.3 -0.8 12
2019-05-30 19:00:00 30.7 16 Nordeste 30 Nordeste 0 944.5 -0.8 11
2019-05-30 18:00:00 31 18 Este 32 Este 0 944.9 -1 12
2019-05-30 17:00:00 30.8 14 Nordeste 41 Nordeste 0 945.1 -1.3 12
2019-05-30 16:00:00 31.1 15 Nordeste 34 Nordeste 0 945.3 -1.5 13
2019-05-30 15:00:00 29.8 11 Nordeste 31 Este 0 945.9 -1 14
2019-05-30 14:00:00 28.9 14 Este 38 Este 0 946.4 -0.6 16
2019-05-30 13:00:00 27.2 18 Este 31 Este 0 946.8 0.1 20
2019-05-30 12:00:00 25.6 18 Este 31 Nordeste 0 946.9 0.4 25
2019-05-30 11:00:00 24.3 17 Este 29 Este 0 947 0.8 27
2019-05-30 10:00:00 22.3 16 Este 26 Este 0 946.7 0.8 29
2019-05-30 09:00:00 19.6 17 Este 26 Este 0 946.5 1 33
2019-05-30 08:00:00 18.2 13 Este 20 Sudeste 0 946.2 0.7 34
2019-05-30 07:00:00 16.1 12 Sudeste 18 Sudeste 0 945.9 0.4 37
2019-05-30 06:00:00 16.8 12 Este 16 Sudeste 0 945.5 0 35
2019-05-30 05:00:00 17.1 8 Este 13 Este 0 945.5 -0.4 33
2019-05-30 04:00:00 18.7 8 Este 15 Este 0 945.5 -0.5 30
2019-05-30 03:00:00 19.3 12 Este 24 Sudeste 0 945.5 -0.3 28
2019-05-30 02:00:00 20 15 Este 26 Este 0 945.9 0.7 26
2019-05-30 01:00:00 20.4 12 Este 18 Este 0 946 1.7 25
2019-05-30 00:00:00 19.9 10 Este 13 Este 0 945.8 1.9 26
2019-05-29 23:00:00 21.3 8 Este 11 Este 0 945.2 1.7 24
2019-05-29 22:00:00 23.1 6 Este 23 Este 0 944.3 0.8 22
2019-05-29 21:00:00 27 16 Este 28 Este 0 943.9 0.2 17
2019-05-29 20:00:00 28.1 20 Este 31 Este 0 943.5 -0.3 14
2019-05-29 19:00:00 28.5 17 Nordeste 35 Este 0 943.5 -0.6 15
2019-05-29 18:00:00 28.4 20 Nordeste 38 Nordeste 0 943.7 -0.5 14
2019-05-29 17:00:00 28.5 20 Nordeste 33 Este 0 943.8 -0.7 14
2019-05-29 16:00:00 28.4 17 Nordeste 34 Este 0 944.1 -0.5 15
2019-05-29 15:00:00 27.8 19 Nordeste 35 Este 0 944.2 -0.3 15
2019-05-29 14:00:00 27.3 18 Nordeste 35 Nordeste 0 944.5 0 17
2019-05-29 13:00:00 25.9 20 Nordeste 35 Este 0 944.6 0.4 19
2019-05-29 12:00:00 24.6 24 Este 40 Este 0 944.5 0.7 20
2019-05-29 11:00:00 22.7 28 Este 43 Este 0 944.5 1.2 24
2019-05-29 10:00:00 21.2 25 Este 41 Este 0 944.2 1.4 27
2019-05-29 09:00:00 18.6 26 Este 37 Este 0 943.8 1.5 31
2019-05-29 08:00:00 17.1 21 Este 31 Este 0 943.3 1.3 34
2019-05-29 07:00:00 16.2 19 Este 27 Este 0 942.8 1 34
2019-05-29 06:00:00 16.8 21 Este 28 Este 0 942.3 0.6 32
2019-05-29 05:00:00 17.5 21 Este 26 Este 0 942 0.4 30
2019-05-29 04:00:00 18.3 19 Este 24 Este 0 941.8 0.2 28
2019-05-29 03:00:00 19.6 14 Este 17 Este 0 941.7 0.6 27
2019-05-29 02:00:00 19.9 5 Nordeste 13 Norte 0 941.6 0.9 27
2019-05-29 01:00:00 20.5 3 Nordeste 12 Noroeste 0 941.6 1.3 23
2019-05-29 00:00:00 21.9 6 Norte 17 Norte 0 941.1 1.5 19
2019-05-28 23:00:00 23 9 Norte 21 Noroeste 0 940.7 1.7 17
2019-05-28 22:00:00 25.1 13 Norte 30 Noroeste 0 940.3 1.2 14
2019-05-28 21:00:00 28 20 Norte 34 Norte 0 939.6 0.7 14
2019-05-28 20:00:00 30.4 12 Norte 26 Noroeste 0 939 0.1 19
2019-05-28 19:00:00 30.9 12 Norte 36 Norte 0 939.1 0.1 18
2019-05-28 18:00:00 31.7 15 Norte 29 Norte 0 938.9 -0.3 17
2019-05-28 17:00:00 30.9 10 Nordeste 32 Noroeste 0 938.9 -0.5 18
2019-05-28 16:00:00 30.8 11 Norte 28 Norte 0 939 -0.5 19
2019-05-28 15:00:00 30.7 8 Norte 25 Noroeste 0 939.2 0.1 19
2019-05-28 14:00:00 29.3 9 Nordeste 29 Norte 0 939.4 0.4 26
2019-05-28 13:00:00 28.3 10 Norte 23 Norte 0 939.5 0.4 27
2019-05-28 12:00:00 26.8 8 Norte 15 Nordeste 0 939.1 0.5 32
2019-05-28 11:00:00 24.1 6 Nordeste 14 Nordeste 0 939 0.6 41
2019-05-28 10:00:00 22.2 5 Norte 11 Norte 0 939.1 1.1 50
2019-05-28 09:00:00 19.6 5 Norte 10 Noroeste 0 938.6 0.8 60
2019-05-28 08:00:00 17.2 4 Noroeste 9 Norte 0 938.4 0.7 71
2019-05-28 07:00:00 15.6 3 Norte 15 Noroeste 0 938 0 76
2019-05-28 06:00:00 16.1 7 Noroeste 14 Noroeste 0 937.8 -0.4 76
2019-05-28 05:00:00 16.1 6 Oeste 15 Noroeste 0 937.7 -0.8 75
2019-05-28 04:00:00 16.7 7 Oeste 13 Noroeste 0 938 -0.6 70
2019-05-28 03:00:00 17 8 Oeste 13 Oeste 0 938.2 -0.3 65
2019-05-28 02:00:00 18.2 9 Oeste 14 Oeste 0 938.5 0.4 58
2019-05-28 01:00:00 19.4 9 Noroeste 17 Noroeste 0 938.6 1 52
2019-05-28 00:00:00 20.9 13 Noroeste 22 Oeste 0 938.5 1.1 43
2019-05-27 23:00:00 23.1 15 Noroeste 30 Noroeste 0 938.1 1 37
2019-05-27 22:00:00 25.1 17 Noroeste 33 Noroeste 0 937.6 0.5 31
2019-05-27 21:00:00 27.4 19 Noroeste 36 Noroeste 0 937.4 0 27
2019-05-27 20:00:00 29.6 21 Noroeste 37 Noroeste 0 937.1 -0.6 22
2019-05-27 19:00:00 31.2 21 Noroeste 37 Noroeste 0 937.1 -1 18
2019-05-27 18:00:00 31.1 18 Noroeste 35 Noroeste 0 937.4 -1.2 18
2019-05-27 17:00:00 32.1 18 Noroeste 39 Noroeste 0 937.7 -1.5 15
2019-05-27 16:00:00 32 15 Noroeste 40 Noroeste 0 938.1 -1.6 17
2019-05-27 15:00:00 32.3 15 Oeste 32 Oeste 0 938.6 -1.5 16
2019-05-27 14:00:00 31.2 12 Noroeste 32 Noroeste 0 939.2 -1.1 17
2019-05-27 13:00:00 30.4 9 Oeste 24 Noroeste 0 939.7 -0.6 18
2019-05-27 12:00:00 29.1 10 Noroeste 18 Norte 0 940.1 -0.2 19
2019-05-27 11:00:00 27.1 6 Noroeste 13 Noroeste 0 940.3 0.4 21
2019-05-27 10:00:00 24.6 9 Norte 14 Norte 0 940.3 0.7 27
2019-05-27 09:00:00 21.9 8 Norte 12 Noroeste 0 940.3 0.9 33
2019-05-27 08:00:00 19.4 5 Norte 9 Noroeste 0 939.9 0.2 38
2019-05-27 07:00:00 17.3 8 Noroeste 13 Norte 0 939.6 -0.5 44
2019-05-27 06:00:00 19.1 5 Este 8 Este 0 939.4 -1.1 39
2019-05-27 05:00:00 17.8 5 Sudeste 8 Sudeste 0 939.7 -1 43
2019-05-27 04:00:00 18.7 3 Este 6 Sudeste 0 940.1 -1 39
2019-05-27 03:00:00 19.6 3 Sudeste 6 Sudeste 0 940.5 -0.7 36
2019-05-27 02:00:00 19.6 2 Sudeste 8 Norte 0 940.7 -0.2 35
2019-05-27 01:00:00 20.2 3 Noroeste 7 Noroeste 0 941.1 0.6 33
2019-05-27 00:00:00 21.3 2 Norte 8 Norte 0 941.2 0.8 31
2019-05-26 23:00:00 23.5 6 Norte 12 Nordeste 0 940.9 0.7 27
2019-05-26 22:00:00 24.8 7 Norte 20 Norte 0 940.5 0.2 24
2019-05-26 21:00:00 26.8 8 Norte 26 Norte 0 940.4 -0.4 22
2019-05-26 20:00:00 27.8 10 Nordeste 29 Norte 0 940.2 -0.7 20
2019-05-26 19:00:00 28.7 9 Nordeste 35 Norte 0 940.3 -1 20
2019-05-26 18:00:00 28.5 14 Norte 33 Nordeste 0 940.8 -1.2 20
2019-05-26 17:00:00 28.8 11 Norte 33 Norte 0 940.9 -1.6 18
2019-05-26 16:00:00 28.9 12 Norte 25 Norte 0 941.3 -1.6 18
2019-05-26 15:00:00 27.6 13 Norte 27 Norte 0 942 -1.1 19
2019-05-26 14:00:00 26 14 Norte 30 Norte 0 942.5 -0.7 23
2019-05-26 13:00:00 25.7 13 Nordeste 26 Norte 0 942.9 -0.4 23
2019-05-26 12:00:00 24.3 13 Nordeste 22 Nordeste 0 943.1 -0.1 25
2019-05-26 11:00:00 23.1 12 Nordeste 24 Nordeste 0 943.2 0.3 28
2019-05-26 10:00:00 21.1 11 Nordeste 18 Nordeste 0 943.3 0.8 31
2019-05-26 09:00:00 19.5 4 Norte 12 Nordeste 0 943.2 1 33
2019-05-26 08:00:00 17.1 3 Nordeste 9 Este 0 942.9 0.4 41
2019-05-26 07:00:00 15.7 5 Nordeste 14 Este 0 942.5 -0.1 41
2019-05-26 06:00:00 15.7 8 Este 14 Este 0 942.2 -0.5 41
2019-05-26 05:00:00 15.6 4 Este 6 Este 0 942.5 -0.3 39
2019-05-26 04:00:00 15.9 4 Sur 9 Norte 0 942.6 -0.4 37
2019-05-26 03:00:00 17.2 0 Calma 6 Noroeste 0 942.7 -0.4 35
2019-05-26 02:00:00 17.4 5 Noroeste 14 Noroeste 0 942.8 -0.1 34
2019-05-26 01:00:00 17.4 6 Este 9 Este 0 943 0.8 33
2019-05-26 00:00:00 18 4 Este 8 Sudeste 0 943.1 1.3 31
2019-05-25 23:00:00 18.7 4 Este 14 Nordeste 0 942.9 1.4 28
2019-05-25 22:00:00 22.1 8 Nordeste 18 Nordeste 0 942.2 0.8 23
2019-05-25 21:00:00 24 11 Nordeste 27 Nordeste 0 941.8 0.4 20
2019-05-25 20:00:00 25.1 12 Nordeste 33 Nordeste 0 941.5 0.1 19
2019-05-25 19:00:00 25.4 14 Nordeste 27 Nordeste 0 941.4 -0.5 20
2019-05-25 18:00:00 25.7 13 Nordeste 32 Nordeste 0 941.4 -0.8 19
2019-05-25 17:00:00 25.6 10 Nordeste 24 Nordeste 0 941.4 -1 20
2019-05-25 16:00:00 24.4 16 Nordeste 29 Nordeste 0 941.9 -0.7 22
2019-05-25 15:00:00 24 17 Nordeste 30 Nordeste 0 942.2 -0.3 25
2019-05-25 14:00:00 23.6 14 Nordeste 32 Nordeste 0 942.4 -0.1 25
2019-05-25 13:00:00 22.2 14 Nordeste 29 Nordeste 0 942.6 0.3 30
2019-05-25 12:00:00 21.1 16 Nordeste 31 Nordeste 0 942.5 0.7 32
2019-05-25 11:00:00 19.9 15 Nordeste 31 Este 0 942.5 1 36
2019-05-25 10:00:00 18.4 19 Este 32 Nordeste 0 942.3 1.3 46
2019-05-25 09:00:00 17 17 Este 30 Este 0 941.8 1.2 56
2019-05-25 08:00:00 15 13 Este 19 Este 0 941.5 1.3 65
2019-05-25 07:00:00 14.2 7 Este 13 Este 0 941 1.1 61
2019-05-25 06:00:00 15.2 9 Nordeste 13 Este 0 940.6 0.9 50
2019-05-25 05:00:00 15.5 9 Este 18 Este 0 940.2 0.4 43
2019-05-25 04:00:00 15.9 14 Este 21 Este 0 939.9 0.4 40
2019-05-25 03:00:00 17.2 13 Este 17 Este 0 939.7 0.3 36
2019-05-25 02:00:00 17.6 5 Nordeste 14 Norte 0 939.8 0.8 33
2019-05-25 01:00:00 17.9 9 Norte 17 Norte 0 939.5 1.2 33
2019-05-25 00:00:00 19.4 11 Noroeste 21 Norte 0 939.4 1.7 31
2019-05-24 23:00:00 21 14 Noroeste 28 Noroeste 0 939 1.7 30
2019-05-24 22:00:00 23 11 Norte 24 Norte 0 938.3 1 28
2019-05-24 21:00:00 24.6 8 Norte 24 Noroeste 0 937.7 0.2 29
2019-05-24 20:00:00 26 12 Norte 29 Norte 0 937.3 -0.3 26
2019-05-24 19:00:00 26.4 13 Nordeste 32 Nordeste 0 937.3 -0.9 23
2019-05-24 18:00:00 26.6 13 Norte 28 Norte 0 937.5 -1 23
2019-05-24 17:00:00 26.5 11 Norte 30 Norte 0 937.6 -1.2 23
2019-05-24 16:00:00 26.3 12 Norte 33 Noroeste 0 938.2 -0.8 24
2019-05-24 15:00:00 24.4 18 Norte 34 Norte 0 938.5 -1 25
2019-05-24 14:00:00 23.6 18 Noroeste 34 Noroeste 0 938.8 -0.9 27
2019-05-24 13:00:00 22.1 15 Norte 30 Noroeste 0 939 -0.6 33
2019-05-24 12:00:00 20.9 15 Norte 30 Norte 0 939.5 0.2 39
2019-05-24 11:00:00 19 18 Norte 34 Norte 0 939.7 0.2 44
2019-05-24 10:00:00 17.4 17 Noroeste 31 Noroeste 0 939.6 0.1 53
2019-05-24 09:00:00 14 17 Noroeste 26 Noroeste 0 939.3 -0.4 68
2019-05-24 08:00:00 11 9 Oeste 14 Oeste 0 939.5 -0.4 81
2019-05-24 07:00:00 10.7 9 Oeste 15 Noroeste 0 939.5 -1 87
2019-05-24 06:00:00 11 4 Oeste 13 Oeste 0 939.7 -0.9 88
2019-05-24 05:00:00 12 9 Oeste 18 Noroeste 0 939.9 -1.6 88
2019-05-24 04:00:00 12.9 8 Noroeste 18 Oeste 0 940.5 -1.4 84
2019-05-24 03:00:00 13.6 13 Oeste 26 Noroeste 0 940.6 -1.5 82
2019-05-24 02:00:00 15 15 Noroeste 30 Noroeste 0 941.5 -0.3 76
2019-05-24 01:00:00 16.4 8 Noroeste 26 Noroeste 0 941.9 0.8 66
2019-05-24 00:00:00 18.2 11 Noroeste 20 Noroeste 0 942.1 1.2 54
2019-05-23 23:00:00 19.3 13 Noroeste 23 Noroeste 0 941.8 1.2 40
2019-05-23 22:00:00 20.7 14 Noroeste 32 Noroeste 0 941.1 0.3 32
2019-05-23 21:00:00 23.3 23 Noroeste 35 Noroeste 0 940.9 -0.1 26
2019-05-23 20:00:00 25.9 22 Noroeste 37 Noroeste 0 940.6 -0.5 19
2019-05-23 19:00:00 26.4 24 Noroeste 36 Oeste 0 940.8 -0.7 19
2019-05-23 18:00:00 28.9 18 Oeste 36 Oeste 0 941 -1.1 21
2019-05-23 17:00:00 29 22 Oeste 33 Oeste 0 941.1 -1.5 22
2019-05-23 16:00:00 29.3 14 Noroeste 33 Oeste 0 941.5 -1.7 23
2019-05-23 15:00:00 28.8 12 Sur 27 Sudoeste 0 942.1 -1.3 24
2019-05-23 14:00:00 28.3 10 Oeste 29 Sudoeste 0 942.6 -0.7 23
2019-05-23 13:00:00 27.2 17 Noroeste 28 Noroeste 0 943.2 -0.2 26
2019-05-23 12:00:00 26.7 9 Oeste 21 Noroeste 0 943.4 0.5 28
2019-05-23 11:00:00 24.9 2 Este 8 Oeste 0 943.3 0.5 32
2019-05-23 10:00:00 22.8 2 Norte 9 Este 0 943.4 0.8 34
2019-05-23 09:00:00 19.9 4 Este 6 Este 0 942.9 0.4 51
2019-05-23 08:00:00 16.3 3 Oeste 8 Oeste 0 942.8 0.3 64
2019-05-23 07:00:00 14.6 5 Sudoeste 10 Oeste 0 942.6 0 69
2019-05-23 06:00:00 14.9 7 Oeste 15 Oeste 0 942.5 -0.3 68
2019-05-23 05:00:00 15.4 9 Oeste 13 Oeste 0 942.5 -0.4 71
2019-05-23 04:00:00 15.8 11 Oeste 19 Oeste 0 942.6 -0.3 71
2019-05-23 03:00:00 17.2 8 Noroeste 15 Oeste 0 942.8 0 65
2019-05-23 02:00:00 17.5 10 Oeste 15 Oeste 0 942.9 0.6 47
2019-05-23 01:00:00 19.1 12 Sudoeste 17 Oeste 0 942.9 1.2 39
2019-05-23 00:00:00 20 12 Sudoeste 21 Sudoeste 0 942.8 1.5 40
2019-05-22 23:00:00 21.6 17 Sudoeste 24 Sudoeste 0 942.3 1.2 37
2019-05-22 22:00:00 22.1 12 Sudoeste 15 Sudoeste 0 941.7 0.6 32
2019-05-22 21:00:00 24.9 9 Sudoeste 21 Sur 0 941.3 0.1 26
2019-05-22 20:00:00 26.2 6 Sudoeste 16 Sudoeste 0 941.1 -0.4 24
2019-05-22 19:00:00 26.5 15 Sudoeste 24 Oeste 0 941.1 -0.6 24
2019-05-22 18:00:00 29 14 Sudoeste 30 Sudoeste 0 941.2 -0.8 20
2019-05-22 17:00:00 29 15 Oeste 29 Oeste 0 941.5 -0.8 20
2019-05-22 16:00:00 26.9 14 Sur 30 Sur 0 941.7 -0.7 22
2019-05-22 15:00:00 28.7 12 Sur 30 Sudoeste 0 942 -0.5 18
2019-05-22 14:00:00 27.9 12 Sudoeste 30 Sudoeste 0 942.3 0 21
2019-05-22 13:00:00 26.7 12 Sur 28 Sur 0 942.4 0.3 25
2019-05-22 12:00:00 25.1 11 Sur 23 Sur 0 942.5 0.9 32
2019-05-22 11:00:00 22.9 11 Este 21 Este 0 942.3 1 38
2019-05-22 10:00:00 21.3 12 Este 18 Este 0 942.1 1.1 47
2019-05-22 09:00:00 19.1 11 Este 14 Este 0 941.6 0.7 55
2019-05-22 08:00:00 15.5 8 Este 9 Este 0 941.3 0.2 72
2019-05-22 07:00:00 12.9 3 Sudeste 6 Nordeste 0 941 -0.3 82
2019-05-22 06:00:00 13.5 0 Calma 8 Oeste 0 940.9 -0.4 78
2019-05-22 05:00:00 13.6 4 Oeste 13 Oeste 0 941.1 -0.2 77
2019-05-22 04:00:00 13.6 9 Sudoeste 14 Oeste 0 941.3 0.1 75
2019-05-22 03:00:00 14.3 10 Oeste 14 Oeste 0 941.3 0.1 66
2019-05-22 02:00:00 15.2 8 Sudoeste 17 Oeste 0 941.3 0.4 59
2019-05-22 01:00:00 16.2 8 Oeste 12 Oeste 0 941.2 1.1 54
2019-05-22 00:00:00 16.6 7 Sudoeste 10 Sudoeste 0 941.2 1.6 52
2019-05-21 23:00:00 18 4 Oeste 11 Noroeste 0 940.9 1.6 43
2019-05-21 22:00:00 19.6 8 Noroeste 19 Noroeste 0 940.1 0.9 39
2019-05-21 21:00:00 22.1 12 Norte 21 Noroeste 0 939.6 0.4 31
2019-05-21 20:00:00 22 11 Noroeste 22 Noroeste 0 939.3 -0.1 32
2019-05-21 19:00:00 23.8 15 Noroeste 26 Norte 0 939.2 -0.5 28
2019-05-21 18:00:00 24.6 10 Oeste 23 Noroeste 0 939.2 -0.7 25
2019-05-21 17:00:00 26.1 12 Oeste 23 Oeste 0 939.4 -0.7 22
2019-05-21 16:00:00 24.9 14 Oeste 26 Noroeste 0 939.7 -0.6 24
2019-05-21 15:00:00 24.4 6 Oeste 22 Oeste 0 939.9 -0.7 26
2019-05-21 14:00:00 22.9 9 Norte 21 Norte 0 940.1 -0.4 29
2019-05-21 13:00:00 22.7 5 Nordeste 20 Norte 0 940.3 0 30
2019-05-21 12:00:00 20.4 9 Norte 19 Noroeste 0 940.6 0.7 37
2019-05-21 11:00:00 18.7 8 Norte 17 Norte 0 940.5 0.8 43
2019-05-21 10:00:00 17.4 7 Noroeste 14 Noroeste 0 940.3 0.9 50
2019-05-21 09:00:00 14.7 12 Noroeste 17 Noroeste 0 939.9 0.6 59
2019-05-21 08:00:00 12.1 5 Oeste 12 Oeste 0 939.7 0.5 67
2019-05-21 07:00:00 10.1 9 Oeste 14 Noroeste 0 939.4 0.1 74
2019-05-21 06:00:00 10.8 10 Oeste 15 Noroeste 0 939.3 -0.1 70
2019-05-21 05:00:00 11.1 9 Oeste 18 Noroeste 0 939.2 -0.3 69
2019-05-21 04:00:00 11.7 9 Noroeste 19 Oeste 0 939.3 -0.3 66
2019-05-21 03:00:00 12.4 14 Oeste 21 Oeste 0 939.4 0.1 63
2019-05-21 02:00:00 13.7 13 Oeste 22 Noroeste 0 939.5 0.6 55
2019-05-21 01:00:00 15.2 14 Noroeste 25 Noroeste 0 939.6 1.6 49
2019-05-21 00:00:00 16.8 15 Noroeste 26 Noroeste 0 939.3 1.7 38